Terminal Aerodrome Forecast
Issued by NWS

Home | Current Version | Previous Version | Graphics & Text | Print | Product List | Glossary On
Versions: 1 2 3 4 5 6 7 8 9 10 11 12 13 14 15 16 17 18 19 20 21
000
FTUS43 KGRB 212308 AAB
TAFAUW
TAF AMD
KAUW 212308Z 2123/2218 34010G20KT P6SM SCT080 BKN100
     FM220100 33007KT P6SM SKC
     FM220300 VRB02KT P6SM SKC
     FM221500 29005KT P6SM SKC=

USA.gov is the U.S. government's official web portal to all federal, state and local government web resources and services.